LGL4ML ELLX-EDDH
Flight info
| Callsign | LGL4ML |
|---|---|
| Flight time | N/A |
| Altitude | 23000 |
| Route | DIK N853 HMM M170 BASUM Y850 MUBZI M105 RIBSO RIBSO3D |
| Aircraft | DH8D/M-SDE2E3FGRY/H |
Departure
| Time | 2026-05-01 14:38 |
|---|---|
| Airport | Luxembourg-Findel International Airport (ELLX) |
Arrival
| Time | N/A |
|---|---|
| Airport | Hamburg Helmut Schmidt Airport (EDDH) |
| Time | Latitude | Longitude | Altitude | Speed | Heading |
|---|---|---|---|---|---|
| 2026-05-01 14:02 | 49.63195 | 6.21637 | 1227 ft | 0 kts | 60° |
| 2026-05-01 14:31 | 49.63211 | 6.21687 | 1226 ft | 6 kts | 82° |
| 2026-05-01 14:31 | 49.63172 | 6.21746 | 1225 ft | 8 kts | 149° |
| 2026-05-01 14:31 | 49.63118 | 6.21762 | 1224 ft | 9 kts | 219° |
| 2026-05-01 14:31 | 49.63082 | 6.21661 | 1226 ft | 11 kts | 244° |
| 2026-05-01 14:32 | 49.63039 | 6.21528 | 1228 ft | 15 kts | 245° |
| 2026-05-01 14:32 | 49.63007 | 6.21422 | 1229 ft | 16 kts | 245° |
| 2026-05-01 14:32 | 49.62951 | 6.21241 | 1231 ft | 11 kts | 244° |
| 2026-05-01 14:32 | 49.62911 | 6.21114 | 1233 ft | 14 kts | 244° |
| 2026-05-01 14:33 | 49.62864 | 6.20959 | 1234 ft | 17 kts | 244° |
| 2026-05-01 14:33 | 49.62806 | 6.20778 | 1234 ft | 20 kts | 238° |
| 2026-05-01 14:33 | 49.62707 | 6.20634 | 1233 ft | 18 kts | 216° |
| 2026-05-01 14:33 | 49.62615 | 6.20496 | 1229 ft | 18 kts | 229° |
| 2026-05-01 14:34 | 49.62536 | 6.20355 | 1225 ft | 16 kts | 230° |
| 2026-05-01 14:34 | 49.62470 | 6.20209 | 1220 ft | 16 kts | 239° |
| 2026-05-01 14:34 | 49.62410 | 6.20049 | 1213 ft | 18 kts | 240° |
| 2026-05-01 14:34 | 49.62347 | 6.19883 | 1206 ft | 18 kts | 239° |
| 2026-05-01 14:35 | 49.62286 | 6.19715 | 1201 ft | 18 kts | 240° |
| 2026-05-01 14:35 | 49.62221 | 6.19541 | 1193 ft | 18 kts | 240° |
| 2026-05-01 14:35 | 49.62155 | 6.19363 | 1188 ft | 21 kts | 240° |
| 2026-05-01 14:35 | 49.62080 | 6.19161 | 1179 ft | 21 kts | 240° |
| 2026-05-01 14:36 | 49.62008 | 6.18971 | 1172 ft | 20 kts | 238° |
| 2026-05-01 14:36 | 49.61932 | 6.18795 | 1165 ft | 18 kts | 222° |
| 2026-05-01 14:36 | 49.61837 | 6.18709 | 1160 ft | 15 kts | 173° |
| 2026-05-01 14:36 | 49.61777 | 6.18756 | 1160 ft | 6 kts | 143° |
| 2026-05-01 14:37 | 49.61775 | 6.18815 | 1162 ft | 4 kts | 59° |
| 2026-05-01 14:37 | 49.61803 | 6.18887 | 1165 ft | 16 kts | 61° |
| 2026-05-01 14:37 | 49.62006 | 6.19439 | 1186 ft | 101 kts | 60° |
| 2026-05-01 14:37 | 49.62459 | 6.20651 | 1259 ft | 151 kts | 61° |
| 2026-05-01 14:38 | 49.62997 | 6.22047 | 1744 ft | 158 kts | 60° |
| 2026-05-01 14:38 | 49.63562 | 6.23576 | 2285 ft | 163 kts | 65° |
| 2026-05-01 14:38 | 49.64071 | 6.25037 | 3062 ft | 156 kts | 65° |
| 2026-05-01 14:38 | 49.64574 | 6.26497 | 3701 ft | 157 kts | 66° |
| 2026-05-01 14:39 | 49.65097 | 6.27988 | 4272 ft | 162 kts | 64° |
| 2026-05-01 14:39 | 49.65653 | 6.29496 | 4818 ft | 165 kts | 63° |
| 2026-05-01 14:39 | 49.66221 | 6.31020 | 5406 ft | 167 kts | 63° |
| 2026-05-01 14:39 | 49.66805 | 6.32587 | 5869 ft | 178 kts | 63° |
| 2026-05-01 14:40 | 49.67464 | 6.34355 | 6235 ft | 195 kts | 62° |
| 2026-05-01 14:40 | 49.68138 | 6.36146 | 6846 ft | 198 kts | 62° |
| 2026-05-01 14:40 | 49.68854 | 6.38051 | 7212 ft | 216 kts | 62° |
| 2026-05-01 14:40 | 49.69716 | 6.40009 | 7721 ft | 225 kts | 49° |
| 2026-05-01 14:41 | 49.70998 | 6.41387 | 8291 ft | 232 kts | 25° |
| 2026-05-01 14:41 | 49.72590 | 6.41865 | 8874 ft | 237 kts | 359° |
| 2026-05-01 14:41 | 49.74180 | 6.41240 | 9320 ft | 241 kts | 329° |
| 2026-05-01 14:41 | 49.75342 | 6.39409 | 9731 ft | 242 kts | 303° |
| 2026-05-01 14:42 | 49.76260 | 6.37233 | 10228 ft | 244 kts | 301° |
| 2026-05-01 14:42 | 49.77173 | 6.35028 | 10690 ft | 246 kts | 301° |
| 2026-05-01 14:42 | 49.78089 | 6.32800 | 11154 ft | 247 kts | 301° |
| 2026-05-01 14:42 | 49.79005 | 6.30563 | 11601 ft | 249 kts | 301° |
| 2026-05-01 14:43 | 49.79944 | 6.28264 | 12041 ft | 251 kts | 301° |
| 2026-05-01 14:43 | 49.80867 | 6.26003 | 12442 ft | 255 kts | 301° |
| 2026-05-01 14:43 | 49.81836 | 6.23623 | 12659 ft | 266 kts | 301° |
| 2026-05-01 14:43 | 49.82826 | 6.21186 | 13071 ft | 268 kts | 301° |
| 2026-05-01 14:44 | 49.83825 | 6.18726 | 13483 ft | 270 kts | 301° |
| 2026-05-01 14:44 | 49.86035 | 6.14043 | 14221 ft | 274 kts | 325° |
| 2026-05-01 14:44 | 49.87809 | 6.13100 | 14479 ft | 273 kts | 357° |
| 2026-05-01 14:45 | 49.89696 | 6.13044 | 14849 ft | 273 kts | 2° |
| 2026-05-01 14:45 | 49.93481 | 6.13058 | 15643 ft | 272 kts | 2° |
| 2026-05-01 14:45 | 49.95367 | 6.13070 | 16052 ft | 271 kts | 2° |
| 2026-05-01 14:46 | 49.97242 | 6.13080 | 16456 ft | 269 kts | 2° |
| 2026-05-01 14:46 | 50.00941 | 6.13101 | 17255 ft | 264 kts | 2° |
| 2026-05-01 14:46 | 50.02776 | 6.13111 | 17657 ft | 261 kts | 2° |
| 2026-05-01 14:47 | 50.04584 | 6.13122 | 18056 ft | 258 kts | 2° |
| 2026-05-01 14:47 | 50.06340 | 6.13132 | 18446 ft | 254 kts | 2° |
| 2026-05-01 14:47 | 50.08097 | 6.13142 | 18844 ft | 249 kts | 2° |
| 2026-05-01 14:48 | 50.11464 | 6.13162 | 19628 ft | 237 kts | 2° |
| 2026-05-01 14:48 | 50.13086 | 6.13173 | 19993 ft | 230 kts | 2° |
| 2026-05-01 14:48 | 50.16175 | 6.13194 | 20710 ft | 214 kts | 3° |
| 2026-05-01 14:49 | 50.18988 | 6.13221 | 21385 ft | 192 kts | 3° |
| 2026-05-01 14:49 | 50.21672 | 6.13259 | 21485 ft | 200 kts | 4° |
| 2026-05-01 14:50 | 50.23526 | 6.13276 | 21461 ft | 203 kts | 3° |
| 2026-05-01 14:50 | 50.27423 | 6.13301 | 21524 ft | 218 kts | 2° |
| 2026-05-01 14:51 | 50.28966 | 6.13305 | 21546 ft | 225 kts | 2° |
| 2026-05-01 14:51 | 50.32158 | 6.13812 | 21586 ft | 237 kts | 11° |
| 2026-05-01 14:52 | 50.35528 | 6.14674 | 21684 ft | 250 kts | 11° |
| 2026-05-01 14:52 | 50.37242 | 6.15108 | 21795 ft | 253 kts | 11° |
| 2026-05-01 14:52 | 50.40730 | 6.15987 | 22145 ft | 254 kts | 11° |
| 2026-05-01 14:53 | 50.42477 | 6.16475 | 22302 ft | 254 kts | 18° |
| 2026-05-01 14:53 | 50.43994 | 6.17734 | 22386 ft | 250 kts | 40° |
| 2026-05-01 14:53 | 50.45353 | 6.19475 | 22543 ft | 250 kts | 41° |
| 2026-05-01 14:53 | 50.46684 | 6.21206 | 22709 ft | 250 kts | 41° |
| 2026-05-01 14:54 | 50.48025 | 6.22955 | 22865 ft | 251 kts | 41° |
| 2026-05-01 14:54 | 50.49367 | 6.24706 | 23010 ft | 251 kts | 41° |
| 2026-05-01 14:54 | 50.50708 | 6.26457 | 23159 ft | 252 kts | 41° |
| 2026-05-01 14:54 | 50.52077 | 6.28205 | 23222 ft | 256 kts | 39° |
| 2026-05-01 14:55 | 50.53522 | 6.29898 | 23243 ft | 263 kts | 38° |
| 2026-05-01 14:55 | 50.55027 | 6.31629 | 23253 ft | 269 kts | 38° |
| 2026-05-01 14:55 | 50.56556 | 6.33382 | 23252 ft | 276 kts | 38° |
| 2026-05-01 14:55 | 50.58113 | 6.35166 | 23246 ft | 283 kts | 38° |
| 2026-05-01 14:56 | 50.59724 | 6.37012 | 23238 ft | 289 kts | 38° |
| 2026-05-01 14:56 | 50.61380 | 6.38908 | 23241 ft | 295 kts | 37° |
| 2026-05-01 14:56 | 50.63055 | 6.40827 | 23240 ft | 301 kts | 38° |
| 2026-05-01 14:56 | 50.64756 | 6.42776 | 23234 ft | 306 kts | 37° |
| 2026-05-01 14:57 | 50.66468 | 6.44740 | 23236 ft | 310 kts | 37° |
| 2026-05-01 14:57 | 50.70006 | 6.48802 | 23233 ft | 317 kts | 37° |
| 2026-05-01 14:57 | 50.71795 | 6.50859 | 23234 ft | 319 kts | 37° |
| 2026-05-01 14:58 | 50.73586 | 6.52920 | 23234 ft | 321 kts | 37° |
| 2026-05-01 14:58 | 50.75387 | 6.54995 | 23232 ft | 323 kts | 37° |
| 2026-05-01 14:58 | 50.77223 | 6.57112 | 23227 ft | 325 kts | 37° |
| 2026-05-01 14:58 | 50.79053 | 6.59224 | 23231 ft | 327 kts | 37° |
| 2026-05-01 14:59 | 50.80862 | 6.61315 | 23233 ft | 328 kts | 37° |
| 2026-05-01 14:59 | 50.82716 | 6.63459 | 23234 ft | 329 kts | 37° |
| 2026-05-01 14:59 | 50.84559 | 6.65593 | 23229 ft | 329 kts | 38° |
| 2026-05-01 14:59 | 50.86425 | 6.67754 | 23234 ft | 330 kts | 38° |
| 2026-05-01 15:00 | 50.90125 | 6.72051 | 23228 ft | 330 kts | 38° |
| 2026-05-01 15:00 | 50.91968 | 6.74193 | 23230 ft | 330 kts | 38° |
| 2026-05-01 15:00 | 50.93813 | 6.76339 | 23229 ft | 330 kts | 38° |
| 2026-05-01 15:01 | 50.95681 | 6.78516 | 23231 ft | 331 kts | 38° |
| 2026-05-01 15:01 | 50.97512 | 6.80652 | 23227 ft | 331 kts | 38° |
| 2026-05-01 15:01 | 50.99373 | 6.82824 | 23228 ft | 332 kts | 38° |
| 2026-05-01 15:01 | 51.01242 | 6.85007 | 23225 ft | 332 kts | 38° |
| 2026-05-01 15:02 | 51.03102 | 6.87184 | 23225 ft | 332 kts | 38° |
| 2026-05-01 15:02 | 51.03732 | 6.87921 | 23225 ft | 332 kts | 38° |
| 2026-05-01 15:02 | 51.06814 | 6.91532 | 23232 ft | 332 kts | 38° |
| 2026-05-01 15:02 | 51.08680 | 6.93722 | 23236 ft | 332 kts | 38° |
| 2026-05-01 15:03 | 51.10520 | 6.95883 | 23240 ft | 332 kts | 38° |
| 2026-05-01 15:03 | 51.12391 | 6.98083 | 23242 ft | 331 kts | 38° |
| 2026-05-01 15:03 | 51.14247 | 7.00269 | 23247 ft | 331 kts | 38° |
| 2026-05-01 15:03 | 51.16103 | 7.02456 | 23250 ft | 330 kts | 38° |
| 2026-05-01 15:04 | 51.17939 | 7.04621 | 23251 ft | 331 kts | 38° |
| 2026-05-01 15:04 | 51.19774 | 7.06786 | 23249 ft | 331 kts | 38° |
| 2026-05-01 15:04 | 51.21633 | 7.08983 | 23249 ft | 331 kts | 38° |
| 2026-05-01 15:04 | 51.23471 | 7.11157 | 23255 ft | 331 kts | 38° |
| 2026-05-01 15:05 | 51.25329 | 7.13358 | 23257 ft | 332 kts | 38° |
| 2026-05-01 15:05 | 51.27191 | 7.15566 | 23254 ft | 332 kts | 38° |
| 2026-05-01 15:05 | 51.29037 | 7.17756 | 23256 ft | 332 kts | 38° |
| 2026-05-01 15:05 | 51.30877 | 7.19942 | 23255 ft | 332 kts | 38° |
| 2026-05-01 15:06 | 51.32726 | 7.22140 | 23257 ft | 332 kts | 38° |
| 2026-05-01 15:06 | 51.34591 | 7.24360 | 23263 ft | 332 kts | 38° |
| 2026-05-01 15:06 | 51.36425 | 7.26546 | 23264 ft | 332 kts | 38° |
| 2026-05-01 15:06 | 51.38296 | 7.28777 | 23261 ft | 332 kts | 38° |
| 2026-05-01 15:07 | 51.40140 | 7.30980 | 23264 ft | 332 kts | 38° |
| 2026-05-01 15:07 | 51.41980 | 7.33179 | 23264 ft | 333 kts | 38° |
| 2026-05-01 15:07 | 51.43838 | 7.35403 | 23259 ft | 333 kts | 38° |
| 2026-05-01 15:07 | 51.45691 | 7.37622 | 23260 ft | 333 kts | 38° |
| 2026-05-01 15:08 | 51.47550 | 7.39851 | 23262 ft | 333 kts | 38° |
| 2026-05-01 15:08 | 51.49413 | 7.42088 | 23259 ft | 333 kts | 38° |
| 2026-05-01 15:08 | 51.51259 | 7.44305 | 23257 ft | 333 kts | 38° |
| 2026-05-01 15:08 | 51.53097 | 7.46516 | 23257 ft | 333 kts | 38° |
| 2026-05-01 15:09 | 51.54955 | 7.48753 | 23256 ft | 333 kts | 38° |
| 2026-05-01 15:09 | 51.56801 | 7.50978 | 23257 ft | 333 kts | 38° |
| 2026-05-01 15:09 | 51.58666 | 7.53227 | 23258 ft | 333 kts | 38° |
| 2026-05-01 15:09 | 51.60516 | 7.55462 | 23256 ft | 333 kts | 38° |
| 2026-05-01 15:10 | 51.62349 | 7.57678 | 23257 ft | 334 kts | 38° |
| 2026-05-01 15:10 | 51.66055 | 7.62167 | 23260 ft | 334 kts | 38° |
| 2026-05-01 15:10 | 51.67922 | 7.64430 | 23263 ft | 334 kts | 38° |
| 2026-05-01 15:11 | 51.69767 | 7.66671 | 23260 ft | 333 kts | 39° |
| 2026-05-01 15:11 | 51.73488 | 7.71195 | 23256 ft | 333 kts | 39° |
| 2026-05-01 15:11 | 51.75337 | 7.73447 | 23255 ft | 334 kts | 39° |
| 2026-05-01 15:12 | 51.77184 | 7.75699 | 23257 ft | 334 kts | 38° |
| 2026-05-01 15:12 | 51.80886 | 7.80220 | 23257 ft | 334 kts | 38° |
| 2026-05-01 15:12 | 51.82735 | 7.82482 | 23258 ft | 335 kts | 38° |
| 2026-05-01 15:13 | 51.88297 | 7.89301 | 23259 ft | 336 kts | 38° |
| 2026-05-01 15:14 | 51.92031 | 7.93890 | 23259 ft | 337 kts | 39° |
| 2026-05-01 15:14 | 51.93896 | 7.96186 | 23258 ft | 337 kts | 39° |
| 2026-05-01 15:14 | 51.97639 | 8.00801 | 23257 ft | 338 kts | 39° |
| 2026-05-01 15:15 | 52.01401 | 8.05449 | 23260 ft | 339 kts | 39° |
| 2026-05-01 15:15 | 52.05137 | 8.10075 | 23264 ft | 340 kts | 38° |
| 2026-05-01 15:16 | 52.08915 | 8.14763 | 23267 ft | 340 kts | 38° |
| 2026-05-01 15:16 | 52.12834 | 8.18960 | 23275 ft | 340 kts | 25° |
| 2026-05-01 15:17 | 52.17211 | 8.21880 | 23264 ft | 341 kts | 23° |
| 2026-05-01 15:18 | 52.23830 | 8.26233 | 23273 ft | 342 kts | 23° |
| 2026-05-01 15:18 | 52.26039 | 8.27689 | 23271 ft | 343 kts | 23° |
| 2026-05-01 15:19 | 52.32658 | 8.32058 | 23275 ft | 343 kts | 23° |
| 2026-05-01 15:19 | 52.37082 | 8.34987 | 23276 ft | 343 kts | 23° |
| 2026-05-01 15:19 | 52.39264 | 8.36433 | 23273 ft | 343 kts | 23° |
| 2026-05-01 15:20 | 52.43686 | 8.39370 | 23278 ft | 344 kts | 23° |
| 2026-05-01 15:20 | 52.45922 | 8.40857 | 23278 ft | 344 kts | 23° |
| 2026-05-01 15:20 | 52.48139 | 8.42333 | 23275 ft | 344 kts | 23° |
| 2026-05-01 15:21 | 52.50334 | 8.43797 | 23275 ft | 344 kts | 23° |
| 2026-05-01 15:21 | 52.52547 | 8.45274 | 23278 ft | 344 kts | 23° |
| 2026-05-01 15:21 | 52.54778 | 8.46764 | 23280 ft | 344 kts | 23° |
| 2026-05-01 15:21 | 52.56982 | 8.48239 | 23278 ft | 344 kts | 23° |
| 2026-05-01 15:22 | 52.61440 | 8.51225 | 23287 ft | 345 kts | 23° |
| 2026-05-01 15:22 | 52.63643 | 8.52703 | 23287 ft | 345 kts | 23° |
| 2026-05-01 15:22 | 52.65864 | 8.54195 | 23290 ft | 345 kts | 23° |
| 2026-05-01 15:23 | 52.68078 | 8.55684 | 23290 ft | 345 kts | 23° |
| 2026-05-01 15:23 | 52.70306 | 8.57184 | 23291 ft | 345 kts | 23° |
| 2026-05-01 15:23 | 52.72522 | 8.58677 | 23291 ft | 346 kts | 23° |
| 2026-05-01 15:23 | 52.74763 | 8.60189 | 23293 ft | 346 kts | 23° |
| 2026-05-01 15:24 | 52.76967 | 8.61678 | 23295 ft | 346 kts | 23° |
| 2026-05-01 15:24 | 52.79216 | 8.63199 | 23289 ft | 346 kts | 23° |
| 2026-05-01 15:24 | 52.81435 | 8.64702 | 23287 ft | 346 kts | 23° |
| 2026-05-01 15:24 | 52.83648 | 8.66200 | 23286 ft | 345 kts | 24° |
| 2026-05-01 15:25 | 52.85906 | 8.67732 | 23294 ft | 345 kts | 24° |
| 2026-05-01 15:25 | 52.88099 | 8.69222 | 23292 ft | 346 kts | 24° |
| 2026-05-01 15:25 | 52.90342 | 8.70748 | 23292 ft | 346 kts | 24° |
| 2026-05-01 15:25 | 52.92567 | 8.72262 | 23293 ft | 346 kts | 24° |
| 2026-05-01 15:26 | 52.94788 | 8.73776 | 23299 ft | 346 kts | 24° |
| 2026-05-01 15:26 | 52.97010 | 8.75292 | 23295 ft | 346 kts | 24° |
| 2026-05-01 15:26 | 52.99237 | 8.76813 | 23297 ft | 343 kts | 24° |
| 2026-05-01 15:26 | 53.01419 | 8.78299 | 23135 ft | 336 kts | 24° |
| 2026-05-01 15:27 | 53.03556 | 8.79758 | 22864 ft | 336 kts | 24° |
| 2026-05-01 15:27 | 53.05728 | 8.81243 | 22590 ft | 336 kts | 24° |
| 2026-05-01 15:27 | 53.07900 | 8.82731 | 22319 ft | 337 kts | 24° |
| 2026-05-01 15:28 | 53.12136 | 8.85641 | 21689 ft | 338 kts | 24° |
| 2026-05-01 15:28 | 53.14310 | 8.87138 | 21318 ft | 339 kts | 24° |
| 2026-05-01 15:28 | 53.16494 | 8.88643 | 20968 ft | 339 kts | 24° |
| 2026-05-01 15:29 | 53.20839 | 8.91640 | 20232 ft | 340 kts | 24° |
| 2026-05-01 15:29 | 53.23037 | 8.93158 | 19841 ft | 340 kts | 24° |
| 2026-05-01 15:29 | 53.27380 | 8.96166 | 19091 ft | 339 kts | 24° |
| 2026-05-01 15:30 | 53.31010 | 8.98683 | 18526 ft | 337 kts | 24° |
| 2026-05-01 15:31 | 53.40296 | 9.05146 | 17102 ft | 333 kts | 25° |
| 2026-05-01 15:31 | 53.44540 | 9.08111 | 16453 ft | 331 kts | 25° |
| 2026-05-01 15:32 | 53.48777 | 9.11077 | 15797 ft | 330 kts | 25° |
| 2026-05-01 15:32 | 53.53008 | 9.14045 | 15136 ft | 328 kts | 24° |
| 2026-05-01 15:33 | 53.59298 | 9.18470 | 14159 ft | 326 kts | 25° |
| 2026-05-01 15:34 | 53.65530 | 9.22866 | 13188 ft | 321 kts | 25° |